Falcon Trident — D5HG5 — position and weather

sailwx.info

Track history (hours):
 
Tides and Currents Weather Stations Pressure Air Temp Water Temp Dewpoint Dewpoint Depression Visibility Wind Speed Wind Dir Waves Ship Positions

Falcon Trident

Last reported at 2017-Sep-20 20:01 UTC. Time now 2017-Nov-23 11:22 UTC.
Position N 36°23' E 014°52'.
Warning: this ship's position is months out of date.

Length 199 m; draft 12.4 m.

Type: Cargo ship. MMSI: 636016679.

Date/timePositionNaut miles runAvg speedWind from/ knotsBaromVisibWave heightAir tempDewpointWater temp
2017-Sep-20 20:01N 36°23' E 014°52'213.1
2017-Sep-20 19:50N 36°24' E 014°49'1013.1
2017-Sep-20 19:03N 36°28' E 014°37'313.6
2017-Sep-20 18:51N 36°29' E 014°34'513.7
2017-Sep-20 18:30N 36°30' E 014°28'714.0
2017-Sep-20 18:00N 36°33' E 014°20'714.3
2017-Sep-20 17:30N 36°35' E 014°12'714.1
2017-Sep-20 17:00N 36°37' E 014°03'714.1
2017-Sep-20 16:30N 36°39' E 013°55'714.0
2017-Sep-20 16:00N 36°41' E 013°46'713.6
2017-Sep-20 15:30N 36°43' E 013°38'713.4
2017-Sep-20 14:59N 36°45' E 013°30'50612.9
2017-Sep-18 23:35N 37°01' E 002°57'114.2
2017-Sep-18 23:30N 37°01' E 002°56'714.3
2017-Sep-18 23:00N 36°59' E 002°47'714.1
2017-Sep-18 22:31N 36°58' E 002°39'713.9
2017-Sep-18 22:00N 36°57' E 002°30'713.6
2017-Sep-18 21:30N 36°56' E 002°21'713.4
2017-Sep-18 21:00N 36°55' E 002°13'813.2
2017-Sep-18 20:24N 36°53' E 002°04'513.1
2017-Sep-18 20:00N 36°52' E 001°57'713.0
2017-Sep-18 19:26N 36°51' E 001°48'612.8
2017-Sep-18 18:57N 36°50' E 001°40'612.9
2017-Sep-18 18:30N 36°49' E 001°33'612.9
2017-Sep-18 18:00N 36°48' E 001°25'713.3
2017-Sep-18 17:30N 36°47' E 001°17'713.9
2017-Sep-18 17:00N 36°46' E 001°09'714.2
2017-Sep-18 16:30N 36°45' E 000°60'714.0
2017-Sep-18 16:00N 36°43' E 000°51'714.0
2017-Sep-18 15:30N 36°42' E 000°43'714.0
2017-Sep-18 15:00N 36°41' E 000°34'713.8
2017-Sep-18 14:30N 36°40' E 000°26'713.5
2017-Sep-18 14:00N 36°38' E 000°17'713.3
2017-Sep-18 13:29N 36°37' E 000°09'613.4
2017-Sep-18 13:00N 36°36' E 000°01'713.5
2017-Sep-18 12:30N 36°35' W 000°07'1013.5
2017-Sep-18 11:46N 36°33' W 000°20'613.4
2017-Sep-18 11:20N 36°32' W 000°27'23414.3
2017-Sep-17 18:58N 36°00' W 005°15'612.4
2017-Sep-17 18:30N 36°04' W 005°20'4 7.3
2017-Sep-17 18:01N 36°07' W 005°22'0 0.5
2017-Sep-17 17:28N 36°07' W 005°22'0 0.1
2017-Sep-17 16:58N 36°07' W 005°22'0 0.2
2017-Sep-17 16:25N 36°07' W 005°22'0 0.2
2017-Sep-17 15:58N 36°07' W 005°22'0 0.1
2017-Sep-17 15:28N 36°07' W 005°22'0 0.1
2017-Sep-17 14:58N 36°07' W 005°22'0 0.0
2017-Sep-17 14:25N 36°07' W 005°22'0 0.1
2017-Sep-17 13:55N 36°07' W 005°22'0 0.1
2017-Sep-17 13:25N 36°07' W 005°22'0 0.0
2017-Sep-17 12:55N 36°07' W 005°22'0 0.0
2017-Sep-17 09:04N 36°07' W 005°22'0 0.1
2017-Sep-17 09:00N 36°07' W 005°22'0 0.2
2017-Sep-17 08:27N 36°07' W 005°22'1 1.6
2017-Sep-17 07:41N 36°06' W 005°22'1 4.1
2017-Sep-17 07:27N 36°05' W 005°21'2 4.1
2017-Sep-17 06:59N 36°06' W 005°19'2 3.6
2017-Sep-17 06:29N 36°06' W 005°17'4 4.4
2017-Sep-17 05:29N 36°08' W 005°12'2 3.7
2017-Sep-17 05:00N 36°06' W 005°13'612.1
2017-Sep-17 04:30N 36°01' W 005°17'611.7
2017-Sep-17 04:00N 35°58' W 005°23'510.2
2017-Sep-17 03:30N 35°57' W 005°29'10 9.3
2017-Sep-17 02:27N 35°54' W 005°41'4 9.0
2017-Sep-17 02:00N 35°54' W 005°46'9311.4
2017-Sep-16 17:50N 36°06' W 007°40'412.5
2017-Sep-16 17:30N 36°06' W 007°45'612.5
2017-Sep-16 17:00N 36°07' W 007°52'612.3
2017-Sep-16 16:30N 36°08' W 007°60'3312.0
2017-Sep-16 13:45N 36°15' W 008°40'2111.9
2017-Sep-16 12:01N 36°21' W 009°05'112.1
2017-Sep-16 11:56N 36°21' W 009°06'511.7
2017-Sep-16 11:30N 36°23' W 009°12'  
2017-Sep-13 12:49N 39°42' W 027°38'412.9
2017-Sep-13 12:30N 39°42' W 027°43'1112.9
2017-Sep-13 11:39N 39°43' W 027°58'212.9
2017-Sep-13 11:30N 39°43' W 027°60'913.0
2017-Sep-13 10:48N 39°44' W 028°12'813.0
2017-Sep-13 10:09N 39°45' W 028°23'712.7
2017-Sep-13 09:38N 39°46' W 028°31'212.5
2017-Sep-13 09:26N 39°46' W 028°35'613.1
2017-Sep-13 09:00N 39°46' W 028°42'713.1
2017-Sep-13 08:30N 39°47' W 028°50'713.5
2017-Sep-13 08:00N 39°47' W 028°59'713.3
2017-Sep-13 07:30N 39°48' W 029°08'613.0
2017-Sep-13 07:00N 39°49' W 029°16'612.7
2017-Sep-13 06:30N 39°49' W 029°24'713.3
2017-Sep-13 06:00N 39°50' W 029°33'713.3
2017-Sep-13 05:30N 39°50' W 029°42'613.0
2017-Sep-13 05:00N 39°51' W 029°50'612.7
2017-Sep-13 04:30N 39°51' W 029°58'713.1
2017-Sep-13 03:59N 39°52' W 030°07'713.1
2017-Sep-13 03:29N 39°52' W 030°16'3413.2
2017-Sep-13 00:57N 39°55' W 030°59'813.1
2017-Sep-13 00:22N 39°56' W 031°09'713.1
2017-Sep-12 23:50N 39°55' W 031°18'713.1
2017-Sep-12 23:18N 39°55' W 031°27'413.1
2017-Sep-12 23:01N 39°54' W 031°32'713.0
2017-Sep-12 22:30N 39°54' W 031°41'713.2
2017-Sep-12 22:00N 39°54' W 031°49'613.0
2017-Sep-12 21:30N 39°53' W 031°58'713.0
2017-Sep-12 20:59N 39°53' W 032°06'  
Track history (hours):
 
Tides and Currents Weather Stations Pressure Air Temp Water Temp Dewpoint Dewpoint Depression Visibility Wind Speed Wind Dir Waves Ship Positions

Falcon Trident

Last reported at 2017-Sep-20 20:01 UTC. Time now 2017-Nov-23 11:22 UTC.
Position N 36°23' E 014°52'.
Warning: this ship's position is months out of date.

Length 199 m; draft 12.4 m.

Type: Cargo ship. MMSI: 636016679.

Date/timePositionNaut miles runAvg speedWind from/ knotsBaromVisibWave heightAir tempDewpointWater temp
2017-Sep-20 20:01N 36°23' E 014°52'213.1
2017-Sep-20 19:50N 36°24' E 014°49'1013.1
2017-Sep-20 19:03N 36°28' E 014°37'313.6
2017-Sep-20 18:51N 36°29' E 014°34'513.7
2017-Sep-20 18:30N 36°30' E 014°28'714.0
2017-Sep-20 18:00N 36°33' E 014°20'714.3
2017-Sep-20 17:30N 36°35' E 014°12'714.1
2017-Sep-20 17:00N 36°37' E 014°03'714.1
2017-Sep-20 16:30N 36°39' E 013°55'714.0
2017-Sep-20 16:00N 36°41' E 013°46'713.6
2017-Sep-20 15:30N 36°43' E 013°38'713.4
2017-Sep-20 14:59N 36°45' E 013°30'50612.9
2017-Sep-18 23:35N 37°01' E 002°57'114.2
2017-Sep-18 23:30N 37°01' E 002°56'714.3
2017-Sep-18 23:00N 36°59' E 002°47'714.1
2017-Sep-18 22:31N 36°58' E 002°39'713.9
2017-Sep-18 22:00N 36°57' E 002°30'713.6
2017-Sep-18 21:30N 36°56' E 002°21'713.4
2017-Sep-18 21:00N 36°55' E 002°13'813.2
2017-Sep-18 20:24N 36°53' E 002°04'513.1
2017-Sep-18 20:00N 36°52' E 001°57'713.0
2017-Sep-18 19:26N 36°51' E 001°48'612.8
2017-Sep-18 18:57N 36°50' E 001°40'612.9
2017-Sep-18 18:30N 36°49' E 001°33'612.9
2017-Sep-18 18:00N 36°48' E 001°25'713.3
2017-Sep-18 17:30N 36°47' E 001°17'713.9
2017-Sep-18 17:00N 36°46' E 001°09'714.2
2017-Sep-18 16:30N 36°45' E 000°60'714.0
2017-Sep-18 16:00N 36°43' E 000°51'714.0
2017-Sep-18 15:30N 36°42' E 000°43'714.0
2017-Sep-18 15:00N 36°41' E 000°34'713.8
2017-Sep-18 14:30N 36°40' E 000°26'713.5
2017-Sep-18 14:00N 36°38' E 000°17'713.3
2017-Sep-18 13:29N 36°37' E 000°09'613.4
2017-Sep-18 13:00N 36°36' E 000°01'713.5
2017-Sep-18 12:30N 36°35' W 000°07'1013.5
2017-Sep-18 11:46N 36°33' W 000°20'613.4
2017-Sep-18 11:20N 36°32' W 000°27'23414.3
2017-Sep-17 18:58N 36°00' W 005°15'612.4
2017-Sep-17 18:30N 36°04' W 005°20'4 7.3
2017-Sep-17 18:01N 36°07' W 005°22'0 0.5
2017-Sep-17 17:28N 36°07' W 005°22'0 0.1
2017-Sep-17 16:58N 36°07' W 005°22'0 0.2
2017-Sep-17 16:25N 36°07' W 005°22'0 0.2
2017-Sep-17 15:58N 36°07' W 005°22'0 0.1
2017-Sep-17 15:28N 36°07' W 005°22'0 0.1
2017-Sep-17 14:58N 36°07' W 005°22'0 0.0
2017-Sep-17 14:25N 36°07' W 005°22'0 0.1
2017-Sep-17 13:55N 36°07' W 005°22'0 0.1
2017-Sep-17 13:25N 36°07' W 005°22'0 0.0
2017-Sep-17 12:55N 36°07' W 005°22'0 0.0
2017-Sep-17 09:04N 36°07' W 005°22'0 0.1
2017-Sep-17 09:00N 36°07' W 005°22'0 0.2
2017-Sep-17 08:27N 36°07' W 005°22'1 1.6
2017-Sep-17 07:41N 36°06' W 005°22'1 4.1
2017-Sep-17 07:27N 36°05' W 005°21'2 4.1
2017-Sep-17 06:59N 36°06' W 005°19'2 3.6
2017-Sep-17 06:29N 36°06' W 005°17'4 4.4
2017-Sep-17 05:29N 36°08' W 005°12'2 3.7
2017-Sep-17 05:00N 36°06' W 005°13'612.1
2017-Sep-17 04:30N 36°01' W 005°17'611.7
2017-Sep-17 04:00N 35°58' W 005°23'510.2
2017-Sep-17 03:30N 35°57' W 005°29'10 9.3
2017-Sep-17 02:27N 35°54' W 005°41'4 9.0
2017-Sep-17 02:00N 35°54' W 005°46'9311.4
2017-Sep-16 17:50N 36°06' W 007°40'412.5
2017-Sep-16 17:30N 36°06' W 007°45'612.5
2017-Sep-16 17:00N 36°07' W 007°52'612.3
2017-Sep-16 16:30N 36°08' W 007°60'3312.0
2017-Sep-16 13:45N 36°15' W 008°40'2111.9
2017-Sep-16 12:01N 36°21' W 009°05'112.1
2017-Sep-16 11:56N 36°21' W 009°06'511.7
2017-Sep-16 11:30N 36°23' W 009°12'  
2017-Sep-13 12:49N 39°42' W 027°38'412.9
2017-Sep-13 12:30N 39°42' W 027°43'1112.9
2017-Sep-13 11:39N 39°43' W 027°58'212.9
2017-Sep-13 11:30N 39°43' W 027°60'913.0
2017-Sep-13 10:48N 39°44' W 028°12'813.0
2017-Sep-13 10:09N 39°45' W 028°23'712.7
2017-Sep-13 09:38N 39°46' W 028°31'212.5
2017-Sep-13 09:26N 39°46' W 028°35'613.1
2017-Sep-13 09:00N 39°46' W 028°42'713.1
2017-Sep-13 08:30N 39°47' W 028°50'713.5
2017-Sep-13 08:00N 39°47' W 028°59'713.3
2017-Sep-13 07:30N 39°48' W 029°08'613.0
2017-Sep-13 07:00N 39°49' W 029°16'612.7
2017-Sep-13 06:30N 39°49' W 029°24'713.3
2017-Sep-13 06:00N 39°50' W 029°33'713.3
2017-Sep-13 05:30N 39°50' W 029°42'613.0
2017-Sep-13 05:00N 39°51' W 029°50'612.7
2017-Sep-13 04:30N 39°51' W 029°58'713.1
2017-Sep-13 03:59N 39°52' W 030°07'713.1
2017-Sep-13 03:29N 39°52' W 030°16'3413.2
2017-Sep-13 00:57N 39°55' W 030°59'813.1
2017-Sep-13 00:22N 39°56' W 031°09'713.1
2017-Sep-12 23:50N 39°55' W 031°18'713.1
2017-Sep-12 23:18N 39°55' W 031°27'413.1
2017-Sep-12 23:01N 39°54' W 031°32'713.0
2017-Sep-12 22:30N 39°54' W 031°41'713.2
2017-Sep-12 22:00N 39°54' W 031°49'613.0
2017-Sep-12 21:30N 39°53' W 031°58'713.0
2017-Sep-12 20:59N 39°53' W 032°06'  

Dump ship's entire track history